Flight Track Log - Related Links

Times and Time Zones

All times are in EDT time to prevent confusion due to time zone crossing. See the N740P flight status page for this flight to view local times or setup timezone preferences in your user account.

Time Position Orientation Groundspeed Altitude Reporting Facility
EDT Latitude Longitude Course Direction KTS MPH feet Rate Location/Type
Fri 04:12:32 PM 35.1933 -111.5231 74° East 182 209 12,500  Level Albuquerque Center
Fri 04:13:34 PM 35.2111 -111.4492 74° East 188 216 14,700 1,887 Climbing Albuquerque Center
Fri 04:14:36 PM 35.2256 -111.3828 75° East 199 229 16,400 1,548 Climbing Albuquerque Center
Fri 04:15:38 PM 35.2400 -111.3122 76° East 211 243 17,900 1,610 Climbing Albuquerque Center
Fri 04:16:39 PM 35.2533 -111.2444 76° East 208 239 19,700 1,415 Climbing Albuquerque Center
Fri 04:17:41 PM 35.2675 -111.1775 75° East 204 235 20,800 629 Climbing Albuquerque Center
Fri 04:18:43 PM 35.2775 -111.0750 83° East 253 291 21,000 98 Climbing Albuquerque Center
Fri 04:19:44 PM 35.2956 -110.9836 76° East 281 323 21,000  Level Albuquerque Center
Fri 04:20:46 PM 35.3186 -110.8925 73° East 292 336 21,000  Level Albuquerque Center
Fri 04:21:48 PM 35.3350 -110.7833 80° East 292 336 21,000  Level Albuquerque Center
Fri 04:22:50 PM 35.3542 -110.6897 76° East 295 339 21,000  Level Albuquerque Center
Fri 04:23:51 PM 35.3747 -110.5819 77° East 292 336 21,000  Level Albuquerque Center
Fri 04:24:53 PM 35.3931 -110.4886 76° East 294 338 21,000 -387 Level Albuquerque Center
Fri 04:25:55 PM 35.4133 -110.3758 78° East 301 346 20,200 -927 Descending Albuquerque Center
Fri 04:26:56 PM 35.4317 -110.2733 78° East 315 362 19,100 -1,073 Descending Albuquerque Center
Fri 04:27:58 PM 35.4522 -110.1706 76° East 323 372 18,000 -919 Descending Albuquerque Center
Fri 04:29:00 PM 35.4756 -110.0519 76° East 322 371 17,200 -780 Descending Albuquerque Center
Fri 04:30:01 PM 35.4944 -109.9525 77° East 317 365 16,400 -878 Descending Albuquerque Center
Fri 04:31:03 PM 35.5161 -109.8378 77° East 312 359 15,400 -839 Descending Albuquerque Center
Fri 04:33:07 PM 35.5533 -109.6281 78° East 305 351 13,800 -677 Descending Albuquerque Center
Fri 04:34:09 PM 35.5714 -109.5333 77° East 301 346 13,300 -439 Descending Albuquerque Center
Fri 04:35:10 PM 35.5889 -109.4419 77° East 295 339 12,900 -393 Descending Albuquerque Center

Login

Don't have an account? Register now (free) for customized features, flight alerts, and more!